Vburg, Mississippi
Current Conditions -  °F | °C
As of 5:35 AM on Thursday 27 Nov 2014 (Local Time) from KVKS Reporting Station
Clear Clear  
Wind Chill: 37°   Ceiling: Unl
Heat Index: 41°   Visibility: 10mi
Dew Point: 34°   Wind: 6mph
Humidity: 76%   Direction: 320°NW
Pressure: 30.41"   Gusts: NA
Location:  32.3524°N, 90.8776°W
Report Text: KVKS 271135Z AUTO 32005KT 10SM CLR 05/01 A3041 RMK A01
Loading
Personal Weather Stations






























Interactive Weather Map New forecast layout! Learn more

10-Day Weather Forecast

Advertisements
Track Severe Weather on mobile